Time;durP1;ratioP1;P1;durP2;ratioP2;P2;SDS_P1;SDS_P2;PMS_P1;PMS_P2;Temp;Humidity;BMP_temperature;BMP_pressure;BME280_temperature;BME280_humidity;BME280_pressure;Samples;Min_cycle;Max_cycle;Signal;HPM_P1;HPM_P2
2023/01/11 00:01:03;;;;;;;1.03;0.70;;;;;;;;;;4950941;29;20446;-68
2023/01/11 00:03:31;;;;;;;1.63;0.50;;;;;;;;;;4951521;28;20470;-69
2023/01/11 00:05:57;;;;;;;0.73;0.73;;;;;;;;;;4952096;28;20573;-69
2023/01/11 00:08:24;;;;;;;3.33;1.00;;;;;;;;;;4950592;28;20431;-68
2023/01/11 00:10:50;;;;;;;1.57;0.70;;;;;;;;;;4951240;28;20537;-68
2023/01/11 00:13:16;;;;;;;0.80;0.80;;;;;;;;;;4951415;28;21003;-68
2023/01/11 00:15:42;;;;;;;1.23;0.90;;;;;;;;;;4951083;29;20526;-68
2023/01/11 00:18:09;;;;;;;1.80;0.90;;;;;;;;;;4950978;28;20523;-67
2023/01/11 00:20:38;;;;;;;3.00;0.93;;;;;;;;;;4950876;29;20453;-67
2023/01/11 00:23:04;;;;;;;0.73;0.60;;;;;;;;;;4952013;28;20446;-68
2023/01/11 00:25:30;;;;;;;0.80;0.80;;;;;;;;;;4951154;29;20486;-68
2023/01/11 00:27:56;;;;;;;1.50;0.40;;;;;;;;;;4950943;29;20951;-67
2023/01/11 00:30:22;;;;;;;1.40;1.30;;;;;;;;;;4951257;28;20827;-67
2023/01/11 00:32:48;;;;;;;0.77;0.67;;;;;;;;;;4951420;28;20435;-67
2023/01/11 00:35:14;;;;;;;5.20;1.10;;;;;;;;;;4951903;28;20446;-67
2023/01/11 00:37:40;;;;;;;0.97;0.80;;;;;;;;;;4950087;29;20435;-68
2023/01/11 00:40:06;;;;;;;0.90;0.73;;;;;;;;;;4951145;29;20439;-67
2023/01/11 00:48:05;;;;;;;2.27;0.80;;;;;;;;;;4946099;28;20505;-69
2023/01/11 00:50:33;;;;;;;1.60;0.80;;;;;;;;;;4952902;28;20465;-68
2023/01/11 00:52:59;;;;;;;0.60;0.60;;;;;;;;;;4952785;28;20438;-68
2023/01/11 00:55:26;;;;;;;0.70;0.70;;;;;;;;;;4955445;28;20946;-67
2023/01/11 00:57:52;;;;;;;1.17;1.03;;;;;;;;;;4936903;28;20473;-68
2023/01/11 01:00:19;;;;;;;4.73;0.90;;;;;;;;;;4953738;28;20433;-68
2023/01/11 01:02:46;;;;;;;0.90;0.90;;;;;;;;;;4954124;29;20434;-68
2023/01/11 01:05:12;;;;;;;1.17;1.00;;;;;;;;;;4939572;28;20486;-68
2023/01/11 01:07:38;;;;;;;1.00;1.00;;;;;;;;;;4954394;28;20442;-68
2023/01/11 01:10:04;;;;;;;1.10;1.10;;;;;;;;;;4954065;29;20524;-69
2023/01/11 01:15:15;;;;;;;2.20;0.60;;;;;;;;;;4954199;28;20451;-67
2023/01/11 01:17:41;;;;;;;0.50;0.50;;;;;;;;;;4953278;28;20451;-67
2023/01/11 01:20:07;;;;;;;1.13;1.03;;;;;;;;;;4952707;29;21001;-68
2023/01/11 01:22:34;;;;;;;0.80;0.80;;;;;;;;;;4953865;29;20467;-67
2023/01/11 01:24:59;;;;;;;3.27;1.47;;;;;;;;;;4954896;28;21002;-68
2023/01/11 01:27:25;;;;;;;5.60;1.20;;;;;;;;;;4953193;29;20494;-67
2023/01/11 01:29:51;;;;;;;1.07;0.70;;;;;;;;;;4935417;29;20444;-67
2023/01/11 01:32:17;;;;;;;0.97;0.97;;;;;;;;;;4952458;28;20485;-67
2023/01/11 01:34:43;;;;;;;1.10;1.10;;;;;;;;;;4953939;28;20438;-68
2023/01/11 01:37:10;;;;;;;1.43;0.70;;;;;;;;;;4948469;28;20531;-67
2023/01/11 01:39:36;;;;;;;0.60;0.60;;;;;;;;;;4950541;28;20853;-68
2023/01/11 01:42:04;;;;;;;0.67;0.67;;;;;;;;;;4952371;28;20435;-67
2023/01/11 01:44:50;;;;;;;3.10;0.60;;;;;;;;;;4952980;29;20950;-68
2023/01/11 01:47:16;;;;;;;0.97;0.80;;;;;;;;;;4951136;29;20449;-67
2023/01/11 01:49:43;;;;;;;0.80;0.50;;;;;;;;;;4951850;29;20515;-67
2023/01/11 01:52:09;;;;;;;0.43;0.43;;;;;;;;;;4934964;29;20951;-69
2023/01/11 01:54:36;;;;;;;0.37;0.37;;;;;;;;;;4952779;28;20811;-68
2023/01/11 01:57:05;;;;;;;0.40;0.40;;;;;;;;;;4952224;28;20994;-68
2023/01/11 01:59:32;;;;;;;0.30;0.30;;;;;;;;;;4952058;28;20489;-68
2023/01/11 02:01:58;;;;;;;0.50;0.50;;;;;;;;;;4951551;28;20955;-67
2023/01/11 02:04:26;;;;;;;0.40;0.40;;;;;;;;;;4952579;29;20423;-67
2023/01/11 02:06:54;;;;;;;0.73;0.40;;;;;;;;;;4952356;28;20451;-67
2023/01/11 02:09:23;;;;;;;0.40;0.40;;;;;;;;;;4952301;28;20506;-67
2023/01/11 02:11:49;;;;;;;0.30;0.30;;;;;;;;;;4952673;29;20423;-67
2023/01/11 02:14:17;;;;;;;0.33;0.33;;;;;;;;;;4952402;28;20478;-69
2023/01/11 02:16:43;;;;;;;0.33;0.33;;;;;;;;;;4952367;28;20471;-67
2023/01/11 02:19:12;;;;;;;0.40;0.30;;;;;;;;;;4952436;28;20475;-68
2023/01/11 02:21:51;;;;;;;1.50;0.40;;;;;;;;;;4952540;28;20501;-67
2023/01/11 02:24:33;;;;;;;2.83;0.70;;;;;;;;;;4951530;28;20519;-67
2023/01/11 02:27:05;;;;;;;0.33;0.33;;;;;;;;;;4952107;28;20542;-67
2023/01/11 02:29:40;;;;;;;1.07;0.30;;;;;;;;;;4951266;29;20923;-66
2023/01/11 02:32:13;;;;;;;0.30;0.30;;;;;;;;;;4951166;29;20993;-66
2023/01/11 02:35:05;;;;;;;0.30;0.30;;;;;;;;;;4952212;28;20447;-66
2023/01/11 02:37:37;;;;;;;0.40;0.40;;;;;;;;;;4934476;28;20442;-68
2023/01/11 02:40:22;;;;;;;0.30;0.30;;;;;;;;;;4951626;28;20443;-68
2023/01/11 02:45:43;;;;;;;0.30;0.30;;;;;;;;;;4951570;28;20553;-67
2023/01/11 02:48:15;;;;;;;0.30;0.30;;;;;;;;;;4949525;28;20447;-68
2023/01/11 02:50:53;;;;;;;0.30;0.30;;;;;;;;;;4951662;28;20431;-68
2023/01/11 02:53:29;;;;;;;0.30;0.30;;;;;;;;;;4952488;28;20431;-68
2023/01/11 02:55:56;;;;;;;2.37;0.40;;;;;;;;;;4951890;28;20467;-67
2023/01/11 02:58:24;;;;;;;0.30;0.30;;;;;;;;;;4951468;28;20599;-67
2023/01/11 03:00:50;;;;;;;0.30;0.30;;;;;;;;;;4952774;28;20423;-67
2023/01/11 03:03:21;;;;;;;1.53;0.30;;;;;;;;;;4940324;28;20517;-67
2023/01/11 03:05:49;;;;;;;3.17;0.43;;;;;;;;;;4952323;28;20490;-67
2023/01/11 03:08:24;;;;;;;0.23;0.23;;;;;;;;;;4934032;29;20502;-67
2023/01/11 03:11:05;;;;;;;0.43;0.30;;;;;;;;;;4952427;28;20525;-67
2023/01/11 03:13:47;;;;;;;0.43;0.30;;;;;;;;;;4952505;28;20474;-67
2023/01/11 03:16:20;;;;;;;0.40;0.40;;;;;;;;;;4951276;28;20509;-67
2023/01/11 03:18:50;;;;;;;0.40;0.40;;;;;;;;;;4934546;29;20431;-67
2023/01/11 03:21:35;;;;;;;0.43;0.43;;;;;;;;;;4952023;28;20447;-67
2023/01/11 03:24:17;;;;;;;0.30;0.30;;;;;;;;;;4952237;28;20435;-66
2023/01/11 03:26:52;;;;;;;0.30;0.30;;;;;;;;;;4951815;28;20509;-66
2023/01/11 03:29:28;;;;;;;0.30;0.30;;;;;;;;;;4952076;28;20426;-69
2023/01/11 03:32:17;;;;;;;2.53;0.40;;;;;;;;;;4951178;28;20453;-67
2023/01/11 03:34:51;;;;;;;0.57;0.30;;;;;;;;;;4946403;28;20439;-69
2023/01/11 03:37:23;;;;;;;0.30;0.30;;;;;;;;;;4935335;29;20900;-68
2023/01/11 03:39:54;;;;;;;0.30;0.30;;;;;;;;;;4951688;28;20466;-68
2023/01/11 03:42:22;;;;;;;0.30;0.30;;;;;;;;;;4952006;28;20439;-67
2023/01/11 03:44:51;;;;;;;0.40;0.33;;;;;;;;;;4951939;28;20526;-67
2023/01/11 03:47:21;;;;;;;0.97;0.33;;;;;;;;;;4950853;28;21034;-67
2023/01/11 03:49:51;;;;;;;0.37;0.37;;;;;;;;;;4951985;28;20446;-66
2023/01/11 03:52:19;;;;;;;0.30;0.30;;;;;;;;;;4951428;28;20439;-67
2023/01/11 03:54:46;;;;;;;3.67;0.40;;;;;;;;;;4951801;28;20434;-67
2023/01/11 03:57:16;;;;;;;1.60;0.30;;;;;;;;;;4951136;28;20438;-67
2023/01/11 03:59:43;;;;;;;9.13;0.40;;;;;;;;;;4951421;28;20442;-66
2023/01/11 04:02:25;;;;;;;0.33;0.33;;;;;;;;;;4951924;28;20443;-67
2023/01/11 04:04:51;;;;;;;0.30;0.30;;;;;;;;;;4951476;28;20474;-67
2023/01/11 04:07:17;;;;;;;0.40;0.40;;;;;;;;;;4951423;28;20529;-66
2023/01/11 04:09:43;;;;;;;1.40;0.30;;;;;;;;;;4951461;29;20414;-66
2023/01/11 04:12:09;;;;;;;1.60;0.40;;;;;;;;;;4951165;28;20470;-66
2023/01/11 04:14:35;;;;;;;0.40;0.40;;;;;;;;;;4952242;28;21014;-67
2023/01/11 04:17:01;;;;;;;0.30;0.30;;;;;;;;;;4933491;29;20465;-67
2023/01/11 04:19:27;;;;;;;0.30;0.30;;;;;;;;;;4951449;28;20841;-67
2023/01/11 04:21:53;;;;;;;0.50;0.50;;;;;;;;;;4952429;28;20450;-67
2023/01/11 04:24:20;;;;;;;0.40;0.40;;;;;;;;;;4952971;28;20769;-67
2023/01/11 04:26:46;;;;;;;0.30;0.30;;;;;;;;;;4954291;28;21014;-67
2023/01/11 04:29:12;;;;;;;0.30;0.30;;;;;;;;;;4955648;28;20432;-67
2023/01/11 04:31:38;;;;;;;0.30;0.30;;;;;;;;;;4955337;28;20461;-68
2023/01/11 04:34:04;;;;;;;0.40;0.40;;;;;;;;;;4955594;28;20525;-67
2023/01/11 04:36:30;;;;;;;0.40;0.30;;;;;;;;;;4955311;28;20461;-67
2023/01/11 04:38:56;;;;;;;0.50;0.50;;;;;;;;;;4954688;28;20475;-67
2023/01/11 04:44:07;;;;;;;0.50;0.50;;;;;;;;;;4955932;28;20481;-67
2023/01/11 04:46:34;;;;;;;0.40;0.40;;;;;;;;;;4954226;28;20705;-67
2023/01/11 04:48:59;;;;;;;0.40;0.40;;;;;;;;;;4937024;29;20438;-67
2023/01/11 04:51:25;;;;;;;0.40;0.40;;;;;;;;;;4954818;28;20510;-67
2023/01/11 04:53:51;;;;;;;0.50;0.50;;;;;;;;;;4954850;28;20430;-67
2023/01/11 04:56:18;;;;;;;0.40;0.40;;;;;;;;;;4955446;28;21025;-67
2023/01/11 04:58:43;;;;;;;0.30;0.30;;;;;;;;;;4954326;28;20579;-67
2023/01/11 05:01:11;;;;;;;1.70;0.70;;;;;;;;;;4954382;28;20476;-67
2023/01/11 05:03:37;;;;;;;0.40;0.40;;;;;;;;;;4954517;28;20186;-67
2023/01/11 05:06:03;;;;;;;0.30;0.30;;;;;;;;;;4955488;28;20486;-68
2023/01/11 05:08:30;;;;;;;0.40;0.40;;;;;;;;;;4953949;28;20431;-67
2023/01/11 05:10:57;;;;;;;1.80;0.40;;;;;;;;;;4954389;28;20991;-66
2023/01/11 05:13:42;;;;;;;2.20;0.40;;;;;;;;;;4953465;28;20581;-68
2023/01/11 05:16:12;;;;;;;2.63;0.50;;;;;;;;;;4954559;28;20451;-67
2023/01/11 05:18:42;;;;;;;2.93;0.40;;;;;;;;;;4953650;28;20951;-67
2023/01/11 05:21:09;;;;;;;1.80;0.40;;;;;;;;;;4955184;28;20446;-66
2023/01/11 05:23:35;;;;;;;0.30;0.30;;;;;;;;;;4954465;28;20435;-66
2023/01/11 05:26:23;;;;;;;0.40;0.40;;;;;;;;;;4954450;28;20529;-66
2023/01/11 05:28:50;;;;;;;0.30;0.30;;;;;;;;;;4952865;28;20537;-67
2023/01/11 05:31:16;;;;;;;0.30;0.30;;;;;;;;;;4953637;28;20427;-69
2023/01/11 05:33:42;;;;;;;0.40;0.40;;;;;;;;;;4954450;28;20434;-67
2023/01/11 05:36:11;;;;;;;1.03;0.40;;;;;;;;;;4952631;28;20441;-67
2023/01/11 05:38:37;;;;;;;0.90;0.80;;;;;;;;;;4952763;28;20929;-67
2023/01/11 05:41:05;;;;;;;0.40;0.40;;;;;;;;;;4954059;28;20533;-67
2023/01/11 05:43:31;;;;;;;0.87;0.43;;;;;;;;;;4953773;28;20446;-67
2023/01/11 05:45:57;;;;;;;0.50;0.50;;;;;;;;;;4953418;28;20482;-68
2023/01/11 05:48:24;;;;;;;0.30;0.30;;;;;;;;;;4953757;28;20501;-67
2023/01/11 05:50:53;;;;;;;0.70;0.30;;;;;;;;;;4954349;28;20449;-67
2023/01/11 05:53:19;;;;;;;0.57;0.40;;;;;;;;;;4953805;28;20445;-66
2023/01/11 05:55:55;;;;;;;0.40;0.40;;;;;;;;;;4954429;28;20443;-66
2023/01/11 05:58:21;;;;;;;0.53;0.50;;;;;;;;;;4953049;28;20800;-68
2023/01/11 06:00:51;;;;;;;0.30;0.30;;;;;;;;;;4953573;28;20453;-67
2023/01/11 06:03:17;;;;;;;0.30;0.30;;;;;;;;;;4953500;28;20446;-67
2023/01/11 06:05:43;;;;;;;0.40;0.40;;;;;;;;;;4955454;28;20483;-68
2023/01/11 06:08:10;;;;;;;0.30;0.30;;;;;;;;;;4952689;28;20435;-67
2023/01/11 06:10:36;;;;;;;0.40;0.40;;;;;;;;;;4953013;29;20442;-67
2023/01/11 06:15:46;;;;;;;0.40;0.40;;;;;;;;;;4953581;28;20462;-66
2023/01/11 06:18:12;;;;;;;0.40;0.40;;;;;;;;;;4934582;29;20419;-67
2023/01/11 06:20:38;;;;;;;1.17;0.40;;;;;;;;;;4952616;29;20940;-67
2023/01/11 06:23:04;;;;;;;0.40;0.40;;;;;;;;;;4953245;28;20434;-67
2023/01/11 06:25:31;;;;;;;0.80;0.50;;;;;;;;;;4953418;28;20494;-67
2023/01/11 06:27:58;;;;;;;1.27;1.27;;;;;;;;;;4952580;28;20434;-67
2023/01/11 06:30:24;;;;;;;0.53;0.30;;;;;;;;;;4952657;28;20827;-66
2023/01/11 06:32:51;;;;;;;0.43;0.43;;;;;;;;;;4954939;28;20524;-66
2023/01/11 06:35:17;;;;;;;0.30;0.30;;;;;;;;;;4952274;28;20958;-67
2023/01/11 06:37:43;;;;;;;0.50;0.50;;;;;;;;;;4952281;28;20435;-68
2023/01/11 06:40:09;;;;;;;0.50;0.50;;;;;;;;;;4953270;28;21007;-67
2023/01/11 06:42:35;;;;;;;0.50;0.50;;;;;;;;;;4952599;28;20439;-67
2023/01/11 06:45:01;;;;;;;3.07;0.40;;;;;;;;;;4952180;28;20978;-68
2023/01/11 06:47:27;;;;;;;0.57;0.57;;;;;;;;;;4952037;28;20542;-67
2023/01/11 06:49:53;;;;;;;2.50;0.40;;;;;;;;;;4953116;28;20462;-68
2023/01/11 06:52:19;;;;;;;0.70;0.70;;;;;;;;;;4953154;28;20445;-68
2023/01/11 06:54:45;;;;;;;0.63;0.40;;;;;;;;;;4952345;28;20485;-67
2023/01/11 06:57:11;;;;;;;0.50;0.50;;;;;;;;;;4947568;28;20447;-68
2023/01/11 06:59:38;;;;;;;1.90;0.50;;;;;;;;;;4950972;28;20514;-67
2023/01/11 07:02:04;;;;;;;0.30;0.30;;;;;;;;;;4951090;28;20447;-67
2023/01/11 07:04:30;;;;;;;1.00;1.00;;;;;;;;;;4952122;28;20434;-66
2023/01/11 07:06:56;;;;;;;0.43;0.43;;;;;;;;;;4951116;28;20537;-67
2023/01/11 07:09:22;;;;;;;1.40;0.60;;;;;;;;;;4951952;28;20435;-68
2023/01/11 07:11:48;;;;;;;0.53;0.53;;;;;;;;;;4952005;28;20946;-67
2023/01/11 07:14:18;;;;;;;1.80;0.60;;;;;;;;;;4936740;28;20505;-67
2023/01/11 07:16:44;;;;;;;0.60;0.57;;;;;;;;;;4949869;28;20442;-66
2023/01/11 07:19:10;;;;;;;3.20;0.80;;;;;;;;;;4951171;28;20443;-67
2023/01/11 07:21:36;;;;;;;0.73;0.50;;;;;;;;;;4951936;28;20505;-68
2023/01/11 07:24:03;;;;;;;0.67;0.67;;;;;;;;;;4951924;28;20433;-67
2023/01/11 07:26:30;;;;;;;0.50;0.50;;;;;;;;;;4951779;28;20478;-66
2023/01/11 07:28:56;;;;;;;0.60;0.60;;;;;;;;;;4950717;28;20940;-66
2023/01/11 07:31:22;;;;;;;0.50;0.50;;;;;;;;;;4950016;28;20449;-67
2023/01/11 07:33:48;;;;;;;0.50;0.50;;;;;;;;;;4934398;29;20587;-66
2023/01/11 07:36:14;;;;;;;1.80;0.70;;;;;;;;;;4950624;29;20943;-66
2023/01/11 07:38:40;;;;;;;1.40;1.40;;;;;;;;;;4949412;28;22243;-67
2023/01/11 07:43:10;;;;;;;1.23;1.20;;;;;;;;;;4948954;29;20446;-67
2023/01/11 07:43:51;;;;;;;1.47;0.73;;;;;;;;;;4948592;29;20421;-66
2023/01/11 07:46:17;;;;;;;0.60;0.60;;;;;;;;;;4948951;29;20486;-68
2023/01/11 07:48:43;;;;;;;0.73;0.53;;;;;;;;;;4949744;28;20492;-67
2023/01/11 07:51:10;;;;;;;0.97;0.60;;;;;;;;;;4950935;29;20469;-67
2023/01/11 07:53:36;;;;;;;0.30;0.30;;;;;;;;;;4933467;29;20490;-67
2023/01/11 07:56:01;;;;;;;2.30;0.40;;;;;;;;;;4951738;29;20430;-67
2023/01/11 07:58:27;;;;;;;0.40;0.40;;;;;;;;;;4950976;28;20769;-67
2023/01/11 08:00:54;;;;;;;0.60;0.60;;;;;;;;;;4954462;29;20504;-67
2023/01/11 08:03:19;;;;;;;0.70;0.60;;;;;;;;;;4955079;29;20435;-66
2023/01/11 08:05:50;;;;;;;6.83;0.60;;;;;;;;;;4955274;29;20481;-68
2023/01/11 08:08:16;;;;;;;9.83;0.83;;;;;;;;;;4953841;29;20455;-67
2023/01/11 08:10:42;;;;;;;0.80;0.80;;;;;;;;;;4955165;29;20465;-67
2023/01/11 08:15:56;;;;;;;2.93;1.27;;;;;;;;;;4954786;28;20437;-66
2023/01/11 08:18:22;;;;;;;0.93;0.40;;;;;;;;;;4953940;28;20443;-67
2023/01/11 08:20:51;;;;;;;0.30;0.30;;;;;;;;;;4936814;29;20505;-67
2023/01/11 08:23:17;;;;;;;0.50;0.50;;;;;;;;;;4936982;29;20442;-66
2023/01/11 08:25:43;;;;;;;1.07;0.57;;;;;;;;;;4953983;29;21284;-68
2023/01/11 08:28:10;;;;;;;0.77;0.77;;;;;;;;;;4953910;29;20434;-67
2023/01/11 08:30:36;;;;;;;0.57;0.40;;;;;;;;;;4953763;29;20529;-66
2023/01/11 08:33:03;;;;;;;0.67;0.43;;;;;;;;;;4953608;29;20794;-67
2023/01/11 08:35:29;;;;;;;0.37;0.37;;;;;;;;;;4953501;29;20418;-67
2023/01/11 08:37:55;;;;;;;0.50;0.40;;;;;;;;;;4952672;29;20454;-67
2023/01/11 08:40:21;;;;;;;0.70;0.70;;;;;;;;;;4953134;29;20439;-67
2023/01/11 08:42:47;;;;;;;3.60;0.50;;;;;;;;;;4953212;29;20441;-66
2023/01/11 08:45:13;;;;;;;0.53;0.40;;;;;;;;;;4949351;29;20270;-67
2023/01/11 08:47:39;;;;;;;0.40;0.40;;;;;;;;;;4948051;29;20447;-67
2023/01/11 08:50:07;;;;;;;0.60;0.57;;;;;;;;;;4948603;28;20470;-67
2023/01/11 08:52:33;;;;;;;0.43;0.43;;;;;;;;;;4949531;29;20466;-67
2023/01/11 08:54:59;;;;;;;1.80;0.40;;;;;;;;;;4950082;29;20931;-68
2023/01/11 08:57:25;;;;;;;0.60;0.60;;;;;;;;;;4949526;28;20442;-68
2023/01/11 08:59:50;;;;;;;0.30;0.30;;;;;;;;;;4952075;28;20445;-67
2023/01/11 09:02:16;;;;;;;1.00;0.40;;;;;;;;;;4953646;28;20446;-68
2023/01/11 09:07:23;;;;;;;0.30;0.30;;;;;;;;;;4932523;29;20889;-66
2023/01/11 09:09:50;;;;;;;0.97;0.33;;;;;;;;;;4917771;29;20424;-67
2023/01/11 09:12:17;;;;;;;0.30;0.30;;;;;;;;;;4936377;29;20503;-67
2023/01/11 09:14:43;;;;;;;1.30;0.40;;;;;;;;;;4933508;29;20452;-67
2023/01/11 09:17:09;;;;;;;0.30;0.30;;;;;;;;;;4929810;29;20482;-67
2023/01/11 09:19:35;;;;;;;2.43;0.40;;;;;;;;;;4930665;29;20441;-67
2023/01/11 09:22:02;;;;;;;1.07;0.40;;;;;;;;;;4930834;29;20435;-66
2023/01/11 09:24:30;;;;;;;0.30;0.30;;;;;;;;;;4930937;29;20443;-67
2023/01/11 09:26:57;;;;;;;0.50;0.50;;;;;;;;;;4930145;29;20486;-67
2023/01/11 09:29:23;;;;;;;0.40;0.40;;;;;;;;;;4926623;29;20444;-67
2023/01/11 09:31:49;;;;;;;0.30;0.30;;;;;;;;;;4929616;29;20452;-66
2023/01/11 09:34:15;;;;;;;0.40;0.40;;;;;;;;;;4927879;29;20490;-67
2023/01/11 09:36:43;;;;;;;0.30;0.30;;;;;;;;;;4928247;29;20443;-67
2023/01/11 09:39:13;;;;;;;0.30;0.30;;;;;;;;;;4928225;29;20687;-67
2023/01/11 09:42:00;;;;;;;2.73;0.70;;;;;;;;;;4911091;29;20581;-67
2023/01/11 09:44:28;;;;;;;0.30;0.30;;;;;;;;;;4927443;29;20447;-67
2023/01/11 09:47:08;;;;;;;0.40;0.40;;;;;;;;;;4928875;29;20610;-67
2023/01/11 09:49:39;;;;;;;0.30;0.30;;;;;;;;;;4929128;29;20561;-67
2023/01/11 09:52:17;;;;;;;0.30;0.30;;;;;;;;;;4929187;29;20452;-67
2023/01/11 09:54:44;;;;;;;0.30;0.30;;;;;;;;;;4929299;29;21011;-67
2023/01/11 09:57:33;;;;;;;0.33;0.33;;;;;;;;;;4928192;29;20444;-64
2023/01/11 10:00:11;;;;;;;0.30;0.30;;;;;;;;;;4929304;29;20471;-67
2023/01/11 10:02:58;;;;;;;0.30;0.30;;;;;;;;;;4910775;29;20479;-67
2023/01/11 10:05:31;;;;;;;0.30;0.30;;;;;;;;;;4928913;29;20556;-66
2023/01/11 10:08:12;;;;;;;0.40;0.40;;;;;;;;;;4926916;29;20451;-67
2023/01/11 10:10:49;;;;;;;0.50;0.50;;;;;;;;;;4928054;29;20510;-66
2023/01/11 10:13:16;;;;;;;0.97;0.40;;;;;;;;;;4929023;29;20783;-67
2023/01/11 10:15:56;;;;;;;1.37;0.50;;;;;;;;;;4928867;29;20447;-66
2023/01/11 10:18:38;;;;;;;1.53;0.53;;;;;;;;;;4926972;29;20553;-66
2023/01/11 10:21:09;;;;;;;0.50;0.50;;;;;;;;;;4927980;29;20440;-67
2023/01/11 10:23:56;;;;;;;0.50;0.50;;;;;;;;;;4927927;29;21019;-66
2023/01/11 10:26:27;;;;;;;0.47;0.47;;;;;;;;;;4927984;29;20515;-65
2023/01/11 10:29:48;;;;;;;0.77;0.77;;;;;;;;;;4928568;29;20440;-65
2023/01/11 10:32:11;;;;;;;0.80;0.57;;;;;;;;;;4920019;29;20447;-66
2023/01/11 10:34:59;;;;;;;0.93;0.50;;;;;;;;;;4927897;29;20454;-65
2023/01/11 10:38:28;;;;;;;1.30;0.53;;;;;;;;;;4928065;29;20447;-64
2023/01/11 10:40:37;;;;;;;0.73;0.73;;;;;;;;;;4914662;29;20423;-65
2023/01/11 10:43:20;;;;;;;3.43;3.13;;;;;;;;;;4927477;29;20807;-65
2023/01/11 10:45:53;;;;;;;5.43;1.47;;;;;;;;;;4927252;29;20501;-65
2023/01/11 10:48:32;;;;;;;1.40;1.40;;;;;;;;;;4908451;29;20451;-66
2023/01/11 10:50:58;;;;;;;2.30;1.57;;;;;;;;;;4927442;29;20966;-65
2023/01/11 10:53:42;;;;;;;7.67;6.90;;;;;;;;;;4928466;29;20448;-65
2023/01/11 10:56:21;;;;;;;9.53;8.43;;;;;;;;;;4927902;29;20435;-66
2023/01/11 10:58:59;;;;;;;35.47;22.43;;;;;;;;;;4927274;29;21109;-65
2023/01/11 11:01:37;;;;;;;26.63;17.43;;;;;;;;;;4928556;29;20439;-65
2023/01/11 11:04:03;;;;;;;12.60;9.73;;;;;;;;;;4926661;29;20490;-65
2023/01/11 11:06:29;;;;;;;7.40;4.83;;;;;;;;;;4927628;29;20491;-65
2023/01/11 11:09:10;;;;;;;1.70;1.70;;;;;;;;;;4926994;29;20438;-65
2023/01/11 11:11:38;;;;;;;6.97;6.57;;;;;;;;;;4931670;29;20446;-65
2023/01/11 11:14:23;;;;;;;2.07;1.97;;;;;;;;;;4933649;29;20420;-65
2023/01/11 11:16:52;;;;;;;6.33;5.97;;;;;;;;;;4932836;29;20434;-65
2023/01/11 11:19:21;;;;;;;1.40;1.40;;;;;;;;;;4932233;29;20446;-65
2023/01/11 11:21:47;;;;;;;2.23;2.23;;;;;;;;;;4932711;29;20980;-65
2023/01/11 11:24:19;;;;;;;2.03;2.03;;;;;;;;;;4912671;29;20450;-65
2023/01/11 11:26:47;;;;;;;3.43;3.33;;;;;;;;;;4927665;29;20567;-65
2023/01/11 11:29:20;;;;;;;4.43;4.03;;;;;;;;;;4927659;29;20519;-65
2023/01/11 11:31:46;;;;;;;1.63;1.63;;;;;;;;;;4928328;29;21304;-65
2023/01/11 11:34:14;;;;;;;0.87;0.87;;;;;;;;;;4931716;29;20523;-65
2023/01/11 11:36:59;;;;;;;2.03;2.03;;;;;;;;;;4931909;29;20452;-65
2023/01/11 11:39:29;;;;;;;0.50;0.50;;;;;;;;;;4931838;29;20436;-65
2023/01/11 11:41:57;;;;;;;1.90;1.90;;;;;;;;;;4932595;29;20498;-65
2023/01/11 11:44:24;;;;;;;3.37;3.17;;;;;;;;;;4931685;29;20800;-66
2023/01/11 11:47:00;;;;;;;2.03;0.40;;;;;;;;;;4931573;29;21079;-65
2023/01/11 11:49:27;;;;;;;0.80;0.80;;;;;;;;;;4931598;29;20439;-65
2023/01/11 11:51:53;;;;;;;0.93;0.93;;;;;;;;;;4932362;29;20875;-65
2023/01/11 11:54:22;;;;;;;1.47;0.70;;;;;;;;;;4915432;29;20527;-65
2023/01/11 11:56:49;;;;;;;0.60;0.60;;;;;;;;;;4931847;29;20444;-64
2023/01/11 11:59:16;;;;;;;0.60;0.60;;;;;;;;;;4931494;29;20432;-66
2023/01/11 12:01:47;;;;;;;3.90;0.70;;;;;;;;;;4930397;29;20443;-65
2023/01/11 12:04:18;;;;;;;0.40;0.40;;;;;;;;;;4932294;29;20463;-66
2023/01/11 12:06:46;;;;;;;0.30;0.30;;;;;;;;;;4913482;29;21031;-65
2023/01/11 12:09:26;;;;;;;0.47;0.43;;;;;;;;;;4931530;29;20808;-65
2023/01/11 12:11:52;;;;;;;0.70;0.70;;;;;;;;;;4932248;29;20944;-65
2023/01/11 12:14:20;;;;;;;6.63;0.50;;;;;;;;;;4932053;29;20435;-65
2023/01/11 12:16:46;;;;;;;0.40;0.40;;;;;;;;;;4931152;29;20995;-65
2023/01/11 12:19:31;;;;;;;0.30;0.30;;;;;;;;;;4931778;29;20518;-65
2023/01/11 12:22:09;;;;;;;1.47;0.60;;;;;;;;;;4932059;29;20439;-66
2023/01/11 12:24:35;;;;;;;0.30;0.30;;;;;;;;;;4932024;29;21037;-65
2023/01/11 12:27:01;;;;;;;0.93;0.40;;;;;;;;;;4930846;29;20516;-65
2023/01/11 12:29:48;;;;;;;0.40;0.40;;;;;;;;;;4930769;29;20506;-65
2023/01/11 12:32:31;;;;;;;0.50;0.50;;;;;;;;;;4918352;29;20455;-65
2023/01/11 12:35:16;;;;;;;2.13;0.57;;;;;;;;;;4914745;29;20428;-66
2023/01/11 12:37:42;;;;;;;0.47;0.47;;;;;;;;;;4931212;29;20887;-65
2023/01/11 12:40:20;;;;;;;0.50;0.50;;;;;;;;;;4931688;29;20969;-65
2023/01/11 12:43:05;;;;;;;1.73;0.30;;;;;;;;;;4931538;29;20860;-65
2023/01/11 12:46:00;;;;;;;0.40;0.40;;;;;;;;;;4931713;29;20475;-66
2023/01/11 12:48:52;;;;;;;0.30;0.30;;;;;;;;;;4899145;29;20453;-65
2023/01/11 12:51:43;;;;;;;1.93;1.83;;;;;;;;;;4917490;29;20510;-65
2023/01/11 12:54:17;;;;;;;3.93;3.70;;;;;;;;;;4935674;29;20463;-65
2023/01/11 12:56:58;;;;;;;2.00;1.80;;;;;;;;;;4934477;29;20445;-65
2023/01/11 12:59:36;;;;;;;0.80;0.80;;;;;;;;;;4934178;29;20455;-65
2023/01/11 13:02:05;;;;;;;0.90;0.90;;;;;;;;;;4934833;29;20432;-65
2023/01/11 13:04:49;;;;;;;3.00;2.90;;;;;;;;;;4934219;29;20439;-66
2023/01/11 13:07:32;;;;;;;0.73;0.73;;;;;;;;;;4934321;29;20487;-67
2023/01/11 13:10:07;;;;;;;0.80;0.80;;;;;;;;;;4934776;29;20443;-66
2023/01/11 13:12:41;;;;;;;0.30;0.30;;;;;;;;;;4934791;29;20431;-66
2023/01/11 13:15:30;;;;;;;0.73;0.50;;;;;;;;;;4934756;29;20428;-66
2023/01/11 13:18:23;;;;;;;0.50;0.50;;;;;;;;;;4917179;29;20451;-66
2023/01/11 13:20:57;;;;;;;0.30;0.30;;;;;;;;;;4909946;29;20440;-65
2023/01/11 13:23:31;;;;;;;0.47;0.47;;;;;;;;;;4935145;29;20430;-66
2023/01/11 13:26:00;;;;;;;0.47;0.47;;;;;;;;;;4934645;29;20518;-65
2023/01/11 13:28:34;;;;;;;0.40;0.40;;;;;;;;;;4933782;29;20443;-66
2023/01/11 13:31:02;;;;;;;0.40;0.40;;;;;;;;;;4934614;29;20439;-65
2023/01/11 13:33:29;;;;;;;0.50;0.50;;;;;;;;;;4934354;29;20448;-65
2023/01/11 13:36:04;;;;;;;0.50;0.50;;;;;;;;;;4934901;29;20945;-65
2023/01/11 13:38:40;;;;;;;0.50;0.50;;;;;;;;;;4935114;29;20419;-65
2023/01/11 13:41:26;;;;;;;0.30;0.30;;;;;;;;;;4934393;29;20425;-65
2023/01/11 13:44:04;;;;;;;0.37;0.37;;;;;;;;;;4933127;29;20439;-65
2023/01/11 13:46:36;;;;;;;3.10;0.40;;;;;;;;;;4934313;29;20704;-65
2023/01/11 13:49:21;;;;;;;0.60;0.60;;;;;;;;;;4934331;29;20499;-65
2023/01/11 13:51:59;;;;;;;0.80;0.40;;;;;;;;;;4934596;29;20754;-65
2023/01/11 13:54:35;;;;;;;0.40;0.40;;;;;;;;;;4933730;29;20432;-65
2023/01/11 13:57:03;;;;;;;0.50;0.40;;;;;;;;;;4932534;29;20673;-65
2023/01/11 13:59:35;;;;;;;0.40;0.40;;;;;;;;;;4933532;29;20467;-65
2023/01/11 14:02:20;;;;;;;1.80;0.83;;;;;;;;;;4916933;29;20943;-65
2023/01/11 14:05:01;;;;;;;0.40;0.40;;;;;;;;;;4934787;29;20466;-64
2023/01/11 14:07:50;;;;;;;0.33;0.33;;;;;;;;;;4934308;29;20498;-65
2023/01/11 14:10:19;;;;;;;0.47;0.37;;;;;;;;;;4908229;29;20424;-65
2023/01/11 14:12:48;;;;;;;0.40;0.40;;;;;;;;;;4934088;29;20519;-66
2023/01/11 14:15:14;;;;;;;0.40;0.40;;;;;;;;;;4934409;29;20436;-65
2023/01/11 14:17:46;;;;;;;2.53;0.87;;;;;;;;;;4933665;29;20947;-65
2023/01/11 14:20:12;;;;;;;0.50;0.50;;;;;;;;;;4916655;29;20428;-65
2023/01/11 14:22:44;;;;;;;0.87;0.60;;;;;;;;;;4933949;29;20439;-65
2023/01/11 14:25:16;;;;;;;0.77;0.50;;;;;;;;;;4933902;29;20455;-65
2023/01/11 14:27:51;;;;;;;0.30;0.30;;;;;;;;;;4933203;29;20440;-65
2023/01/11 14:30:35;;;;;;;0.83;0.60;;;;;;;;;;4916396;29;20424;-65
2023/01/11 14:33:10;;;;;;;3.33;0.93;;;;;;;;;;4933745;29;20428;-64
2023/01/11 14:35:36;;;;;;;14.13;9.40;;;;;;;;;;4933986;29;20430;-65
2023/01/11 14:38:24;;;;;;;37.57;23.50;;;;;;;;;;4933059;29;20436;-65
2023/01/11 14:41:02;;;;;;;22.07;14.03;;;;;;;;;;4916592;29;20801;-65
2023/01/11 14:43:30;;;;;;;2.47;2.47;;;;;;;;;;4932784;29;20431;-65
2023/01/11 14:46:15;;;;;;;3.03;2.80;;;;;;;;;;4933555;29;20487;-65
2023/01/11 14:48:56;;;;;;;2.10;1.67;;;;;;;;;;4932963;29;20428;-65
2023/01/11 14:51:23;;;;;;;1.60;1.60;;;;;;;;;;4933363;29;20432;-65
2023/01/11 14:53:53;;;;;;;2.73;0.77;;;;;;;;;;4915337;29;20432;-65
2023/01/11 14:56:47;;;;;;;1.00;1.00;;;;;;;;;;4932638;29;20924;-66
2023/01/11 14:59:25;;;;;;;6.97;4.77;;;;;;;;;;4932477;29;20432;-65
2023/01/11 15:02:03;;;;;;;26.17;16.73;;;;;;;;;;4933066;29;20491;-65
2023/01/11 15:04:30;;;;;;;2.97;2.70;;;;;;;;;;4915250;29;20448;-65
2023/01/11 15:06:57;;;;;;;1.70;1.43;;;;;;;;;;4927698;29;20578;-65
2023/01/11 15:09:41;;;;;;;1.30;1.30;;;;;;;;;;4928968;29;20941;-65
2023/01/11 15:12:15;;;;;;;1.10;1.10;;;;;;;;;;4932802;29;20440;-65
2023/01/11 15:14:47;;;;;;;1.27;1.27;;;;;;;;;;4932694;29;20431;-65
2023/01/11 15:20:11;;;;;;;1.33;0.60;;;;;;;;;;4932983;29;20571;-65
2023/01/11 15:22:38;;;;;;;2.63;2.10;;;;;;;;;;4932684;29;20943;-65
2023/01/11 15:25:06;;;;;;;2.83;2.73;;;;;;;;;;4930670;29;20439;-65
2023/01/11 15:27:36;;;;;;;4.23;2.90;;;;;;;;;;4927438;29;20444;-65
2023/01/11 15:30:03;;;;;;;1.93;1.83;;;;;;;;;;4928718;29;20432;-65